MPTO

Tocumen International Airport

Code ICAO MPTO
Code IATA PTY
Nom Tocumen International Airport
Emplacement Tocumen, Panama, PA
Élévation 135 pieds / 41.1 mètres
Latitude 9.07135963
Longitude -79.38349915
METAR MPTO 210900Z 22003KT 9999 TS SCT016CB BKN060 26/24 Q1011 TEMPO 7000 TSRA
Informations extras Afficher cartes et CFS
Afficher NOTAMS
Piste Longueur Largeur Surface Élévation
03L 8800 ft 200 ft ASP 56 ft
03R 10006 ft 148 ft CON 22 ft
21R 8800 ft 200 ft ASP 135 ft
21L 10006 ft 148 ft CON 36 ft